Terminal Aerodrome Forecast
Issued by NWS

Home | Current Version | Previous Version | Graphics & Text | Print | Product List | Glossary On
Versions: 1 2 3 4 5 6 7 8 9 10 11 12 13 14 15 16 17 18 19 20 21 22 23 24 25 26 27
932
FTUS45 KGGW 110520
TAFOLF
TAF
KOLF 110520Z 1106/1206 VRB03KT P6SM OVC020
     FM110700 09004KT 6SM -SN OVC025
     FM111800 08006KT P6SM OVC010
     FM112100 31007KT P6SM OVC015=

USA.gov is the U.S. government's official web portal to all federal, state and local government web resources and services.